Time;durP1;ratioP1;P1;durP2;ratioP2;P2;SDS_P1;SDS_P2;PMS_P1;PMS_P2;Temp;Humidity;BMP_temperature;BMP_pressure;BME280_temperature;BME280_humidity;BME280_pressure;Samples;Min_cycle;Max_cycle;Signal;HPM_P1;HPM_P2
2022/04/01 00:01:29;;;;;;;20.95;12.65;;;;;;;1.89;66.69;99323.69;5070065;28;20107;-60
2022/04/01 00:03:54;;;;;;;20.73;11.63;;;;;;;1.77;65.64;99294.38;5069788;28;20058;-58
2022/04/01 00:06:20;;;;;;;17.15;11.80;;;;;;;1.79;66.99;99333.88;5051700;28;20117;-56
2022/04/01 00:08:45;;;;;;;17.67;11.00;;;;;;;1.77;66.82;99336.63;5070376;28;20095;-60
2022/04/01 00:11:11;;;;;;;18.58;11.07;;;;;;;1.79;65.83;99304.84;5069999;28;20339;-56
2022/04/01 00:13:37;;;;;;;17.08;11.65;;;;;;;1.49;66.77;99282.66;5069274;28;20036;-57
2022/04/01 00:16:03;;;;;;;17.85;11.82;;;;;;;1.69;67.85;99320.34;5053018;28;20036;-60
2022/04/01 00:18:29;;;;;;;16.88;10.38;;;;;;;1.67;67.76;99323.06;5050127;28;20138;-59
2022/04/01 00:20:54;;;;;;;15.25;9.73;;;;;;;1.81;66.11;99334.66;5050075;28;20055;-57
2022/04/01 00:23:20;;;;;;;12.73;8.23;;;;;;;1.68;66.32;99321.25;5049141;28;20352;-58
2022/04/01 00:25:45;;;;;;;14.07;9.52;;;;;;;1.65;67.26;99324.06;5031991;28;20035;-61
2022/04/01 00:28:11;;;;;;;17.35;10.85;;;;;;;1.32;67.82;99282.66;5050143;28;20025;-59
2022/04/01 00:30:39;;;;;;;18.13;12.27;;;;;;;1.63;68.27;99331.19;5049726;28;20029;-54
2022/04/01 00:33:05;;;;;;;19.98;11.32;;;;;;;1.72;68.02;99326.28;5049627;28;20033;-58
2022/04/01 00:35:32;;;;;;;17.88;10.85;;;;;;;1.68;67.65;99315.97;5049295;28;20111;-56
2022/04/01 00:37:58;;;;;;;12.40;7.65;;;;;;;1.96;66.61;99340.94;5049563;28;20033;-60
2022/04/01 00:40:23;;;;;;;19.35;10.80;;;;;;;1.92;66.41;99328.81;5049707;28;20436;-56
2022/04/01 00:42:49;;;;;;;16.17;10.52;;;;;;;1.80;67.19;99325.03;5048571;28;20043;-57
2022/04/01 00:45:16;;;;;;;15.43;10.25;;;;;;;1.82;67.54;99331.94;5050208;28;20117;-57
2022/04/01 00:47:42;;;;;;;17.27;11.25;;;;;;;1.86;67.53;99337.94;5053197;28;20029;-59
2022/04/01 00:50:08;;;;;;;16.48;10.75;;;;;;;1.96;66.72;99340.94;5053091;28;20032;-55
2022/04/01 00:52:36;;;;;;;14.65;10.60;;;;;;;1.88;67.45;99343.97;5053089;28;20033;-57
2022/04/01 00:55:04;;;;;;;13.30;9.13;;;;;;;1.93;67.30;99349.00;5052598;28;20029;-59
2022/04/01 00:57:31;;;;;;;15.63;10.48;;;;;;;1.95;66.16;99337.44;5071945;28;20032;-60
2022/04/01 00:59:57;;;;;;;18.52;10.35;;;;;;;1.85;66.85;99347.63;5064578;28;20029;-59
2022/04/01 01:02:22;;;;;;;17.60;10.68;;;;;;;2.00;66.04;99363.59;5051947;28;20098;-56
2022/04/01 01:04:48;;;;;;;19.05;12.15;;;;;;;1.79;66.95;99350.59;5052228;28;20036;-56
2022/04/01 01:07:14;;;;;;;16.73;11.52;;;;;;;1.72;67.68;99351.84;5051979;28;20040;-57
2022/04/01 01:09:41;;;;;;;18.15;12.00;;;;;;;1.72;67.10;99357.13;5034590;28;20107;-58
2022/04/01 01:12:07;;;;;;;16.83;9.38;;;;;;;1.80;66.47;99348.78;5052288;28;20029;-58
2022/04/01 01:14:36;;;;;;;16.73;8.68;;;;;;;1.95;65.40;99363.84;5052421;28;20044;-57
2022/04/01 01:17:04;;;;;;;17.40;9.80;;;;;;;1.64;66.83;99343.47;5052032;28;20028;-59
2022/04/01 01:19:30;;;;;;;15.27;9.32;;;;;;;1.58;67.13;99348.13;5051934;28;20532;-56
2022/04/01 01:21:57;;;;;;;14.15;9.27;;;;;;;1.49;67.58;99353.88;5052719;28;20075;-58
2022/04/01 01:24:36;;;;;;;13.68;8.60;;;;;;;1.54;67.33;99365.03;5052430;28;20029;-58
2022/04/01 01:27:05;;;;;;;14.65;10.10;;;;;;;1.48;67.84;99357.44;5052142;28;20078;-57
2022/04/01 01:29:32;;;;;;;12.75;8.85;;;;;;;1.52;67.52;99358.13;5052234;28;20068;-56
2022/04/01 01:32:00;;;;;;;13.60;8.75;;;;;;;1.52;67.55;99353.72;5052044;28;20032;-63
2022/04/01 01:34:28;;;;;;;15.32;8.27;;;;;;;1.36;67.86;99350.13;5051969;28;20025;-57
2022/04/01 01:36:54;;;;;;;12.15;8.27;;;;;;;1.32;68.39;99362.63;5051996;28;20041;-60
2022/04/01 01:39:20;;;;;;;11.32;7.93;;;;;;;1.52;66.91;99366.91;5051329;28;20040;-58
2022/04/01 01:41:49;;;;;;;12.35;8.20;;;;;;;1.33;68.48;99353.81;5050943;28;20041;-62
2022/04/01 01:44:16;;;;;;;11.05;8.10;;;;;;;1.43;67.48;99362.94;5052366;28;20371;-58
2022/04/01 01:46:41;;;;;;;13.25;8.25;;;;;;;1.42;67.50;99363.88;5052414;28;20040;-60
2022/04/01 01:49:07;;;;;;;12.40;8.60;;;;;;;1.33;68.30;99364.34;5051781;28;20105;-60
2022/04/01 01:57:01;;;;;;;15.57;9.05;;;;;;;1.29;68.57;99366.28;5051243;28;20867;-57
2022/04/01 01:59:27;;;;;;;12.55;8.10;;;;;;;1.44;68.21;99371.69;5051599;28;20021;-57
2022/04/01 02:01:53;;;;;;;8.57;5.47;;;;;;;1.57;66.70;99386.00;5051665;28;20031;-58
2022/04/01 02:04:23;;;;;;;15.15;8.38;;;;;;;1.42;67.35;99374.44;5051618;28;20052;-58
2022/04/01 02:06:50;;;;;;;11.35;8.20;;;;;;;1.32;68.31;99373.16;5051967;28;20107;-57
2022/04/01 02:09:16;;;;;;;14.38;9.18;;;;;;;1.36;67.82;99381.78;5051492;28;20116;-58
2022/04/01 02:11:43;;;;;;;7.57;4.07;;;;;;;1.33;66.24;99337.09;5033447;28;20032;-56
2022/04/01 02:14:11;;;;;;;12.80;7.70;;;;;;;1.53;66.36;99395.00;5052088;28;20470;-59
2022/04/01 02:16:38;;;;;;;9.98;7.10;;;;;;;1.34;67.18;99391.56;5051393;28;20033;-56
2022/04/01 02:19:04;;;;;;;11.07;7.60;;;;;;;1.25;67.86;99387.59;5050844;28;20033;-57
2022/04/01 02:21:30;;;;;;;9.60;6.70;;;;;;;1.45;66.86;99383.13;5051200;28;20099;-62
2022/04/01 02:23:55;;;;;;;12.50;7.93;;;;;;;1.24;67.98;99386.75;5051492;28;20021;-62
2022/04/01 02:26:22;;;;;;;8.13;5.20;;;;;;;1.34;67.36;99399.47;5050694;28;20032;-59
2022/04/01 02:28:48;;;;;;;12.32;6.97;;;;;;;1.22;67.08;99351.69;5049451;28;20067;-63
2022/04/01 02:31:17;;;;;;;11.45;7.88;;;;;;;1.49;66.95;99389.94;5051015;28;20390;-61
2022/04/01 02:33:43;;;;;;;6.50;4.72;;;;;;;1.54;65.92;99383.50;5033920;28;20033;-60
2022/04/01 02:36:13;;;;;;;8.73;5.97;;;;;;;1.48;66.45;99394.38;5051441;28;20096;-62
2022/04/01 02:38:41;;;;;;;10.75;7.18;;;;;;;1.35;66.99;99393.28;5049567;28;20045;-61
2022/04/01 02:41:09;;;;;;;8.82;5.47;;;;;;;1.37;66.66;99381.72;5050877;28;20033;-62
2022/04/01 02:43:35;;;;;;;12.15;8.45;;;;;;;1.19;67.83;99399.28;5050843;28;20398;-60
2022/04/01 02:46:02;;;;;;;12.88;8.27;;;;;;;1.14;68.04;99386.34;5050923;28;20099;-61
2022/04/01 02:48:28;;;;;;;12.15;8.32;;;;;;;0.71;68.49;99319.88;5050362;28;20033;-61
2022/04/01 02:50:53;;;;;;;10.75;7.35;;;;;;;1.32;67.54;99389.00;5050479;28;20025;-62
2022/04/01 02:53:19;;;;;;;13.50;8.68;;;;;;;1.24;68.24;99402.59;5050577;28;20463;-61
2022/04/01 02:55:45;;;;;;;12.45;8.57;;;;;;;1.40;67.40;99401.81;5049616;28;20041;-58
2022/04/01 02:58:10;;;;;;;12.45;8.70;;;;;;;1.34;68.21;99389.81;5050671;28;20029;-59
2022/04/01 03:00:38;;;;;;;12.35;8.25;;;;;;;1.40;67.48;99400.03;5050162;28;20029;-62
2022/04/01 03:03:06;;;;;;;10.50;7.15;;;;;;;1.48;66.84;99394.38;5050666;28;20033;-58
2022/04/01 03:05:40;;;;;;;12.65;8.20;;;;;;;1.43;66.72;99399.88;5050801;28;20029;-60
2022/04/01 03:08:07;;;;;;;9.80;5.38;;;;;;;1.51;66.53;99393.38;5049419;28;20039;-62
2022/04/01 03:10:37;;;;;;;7.93;5.07;;;;;;;1.47;66.61;99397.97;5050447;28;20033;-60
2022/04/01 03:13:07;;;;;;;12.23;8.02;;;;;;;1.45;66.84;99412.13;5050207;28;20100;-61
2022/04/01 03:15:33;;;;;;;10.70;7.15;;;;;;;1.30;67.56;99406.69;5057636;28;20067;-61
2022/04/01 03:17:59;;;;;;;10.77;6.72;;;;;;;1.31;67.25;99400.47;5059013;28;20028;-59
2022/04/01 03:20:29;;;;;;;12.40;8.25;;;;;;;1.43;66.92;99409.56;5069956;28;20020;-61
2022/04/01 03:22:55;;;;;;;13.63;8.75;;;;;;;1.31;67.13;99412.81;5070381;28;20094;-60
2022/04/01 03:25:21;;;;;;;14.27;8.38;;;;;;;1.20;67.30;99379.91;5052497;28;20032;-60
2022/04/01 03:27:48;;;;;;;17.77;10.00;;;;;;;1.27;67.54;99410.34;5069929;28;20043;-57
2022/04/01 03:30:15;;;;;;;8.82;5.28;;;;;;;1.55;66.33;99419.53;5070052;28;20024;-61
2022/04/01 03:32:42;;;;;;;14.27;7.90;;;;;;;1.32;67.22;99425.09;5070731;28;20029;-60
2022/04/01 03:35:15;;;;;;;12.93;8.23;;;;;;;1.34;66.77;99416.19;5070061;28;20043;-62
2022/04/01 03:37:41;;;;;;;10.90;7.63;;;;;;;1.24;67.13;99415.78;5053240;28;20135;-59
2022/04/01 03:40:08;;;;;;;14.52;9.32;;;;;;;1.14;68.06;99422.41;5050226;28;20040;-61
2022/04/01 03:42:34;;;;;;;14.75;8.63;;;;;;;1.28;67.34;99421.72;5032620;28;20174;-63
2022/04/01 03:45:06;;;;;;;14.73;9.07;;;;;;;1.24;67.79;99421.03;5050138;28;20119;-62
2022/04/01 03:47:41;;;;;;;15.05;9.10;;;;;;;1.25;67.77;99409.56;5049874;28;20037;-62
2022/04/01 03:50:12;;;;;;;16.10;9.20;;;;;;;1.01;67.89;99377.31;5032737;28;20463;-61
2022/04/01 03:52:37;;;;;;;14.43;9.80;;;;;;;1.23;68.21;99424.59;5050256;28;20059;-62
2022/04/01 03:55:06;;;;;;;9.15;6.03;;;;;;;1.54;67.00;99414.31;5049808;28;20033;-52
2022/04/01 03:57:39;;;;;;;12.27;8.00;;;;;;;1.55;66.57;99413.38;5050882;28;20021;-54
2022/04/01 04:00:13;;;;;;;10.32;5.40;;;;;;;1.49;65.73;99382.91;5050582;28;20469;-56
2022/04/01 04:02:41;;;;;;;13.30;8.70;;;;;;;1.50;66.61;99411.00;5050422;28;20537;-53
2022/04/01 04:05:07;;;;;;;10.52;7.07;;;;;;;1.35;66.79;99424.94;5031886;28;20075;-61
2022/04/01 04:07:33;;;;;;;10.85;7.30;;;;;;;1.32;66.95;99433.00;5050034;28;20690;-62
2022/04/01 04:09:59;;;;;;;12.13;7.05;;;;;;;1.32;66.69;99422.44;5032838;28;20033;-61
2022/04/01 04:12:27;;;;;;;10.05;6.65;;;;;;;1.26;66.94;99429.72;5049985;28;20032;-63
2022/04/01 04:14:54;;;;;;;9.45;6.82;;;;;;;1.09;68.05;99425.28;5056421;28;20081;-60
2022/04/01 04:17:46;;;;;;;10.98;7.38;;;;;;;1.33;67.08;99419.75;5068641;28;20036;-57
2022/04/01 04:20:36;;;;;;;9.73;6.13;;;;;;;1.38;66.67;99424.78;5071069;28;20078;-62
2022/04/01 04:23:22;;;;;;;9.35;6.88;;;;;;;1.25;67.18;99432.44;5070592;28;20040;-61
2022/04/01 04:26:04;;;;;;;7.40;5.68;;;;;;;1.34;65.90;99407.41;5071573;28;20051;-62
2022/04/01 04:28:37;;;;;;;9.43;6.28;;;;;;;1.38;65.76;99432.69;5071615;28;20028;-62
2022/04/01 04:31:05;;;;;;;11.05;7.00;;;;;;;1.16;66.96;99444.28;5072512;28;20040;-62
2022/04/01 04:33:31;;;;;;;10.93;6.80;;;;;;;1.33;65.68;99438.22;5071849;28;20060;-58
2022/04/01 04:36:05;;;;;;;8.88;5.97;;;;;;;1.16;66.67;99436.38;5053698;28;20460;-58
2022/04/01 04:38:38;;;;;;;6.93;5.07;;;;;;;1.16;66.36;99425.81;5054588;28;20436;-57
2022/04/01 04:41:08;;;;;;;6.97;5.15;;;;;;;1.34;65.92;99454.88;5072214;28;20074;-58
2022/04/01 04:43:46;;;;;;;11.18;6.50;;;;;;;1.29;65.93;99449.81;5069071;28;20458;-57
2022/04/01 04:46:14;;;;;;;9.32;5.60;;;;;;;1.32;65.79;99447.03;5071936;28;20482;-62
2022/04/01 04:48:42;;;;;;;10.73;6.68;;;;;;;1.24;66.14;99454.47;5071614;28;20114;-63
2022/04/01 04:51:09;;;;;;;8.80;5.47;;;;;;;1.30;65.66;99456.78;5071601;28;20043;-64
2022/04/01 04:53:35;;;;;;;9.45;6.57;;;;;;;1.17;66.42;99464.44;5068726;28;20102;-61
2022/04/01 04:56:03;;;;;;;10.90;6.90;;;;;;;1.33;66.32;99458.44;5071203;28;20467;-63
2022/04/01 04:58:40;;;;;;;10.27;6.60;;;;;;;1.34;66.76;99457.50;5071276;28;20036;-61
2022/04/01 05:01:31;;;;;;;10.30;5.53;;;;;;;1.54;65.45;99475.00;5052332;28;20036;-63
2022/04/01 05:03:57;;;;;;;8.00;4.90;;;;;;;1.63;65.38;99460.50;5067030;28;20020;-67
2022/04/01 05:06:27;;;;;;;10.80;6.35;;;;;;;1.60;64.73;99460.66;5071578;28;20043;-68
2022/04/01 05:09:08;;;;;;;8.63;4.35;;;;;;;1.70;65.33;99475.13;5053324;28;20020;-67
2022/04/01 05:11:44;;;;;;;9.85;6.88;;;;;;;1.63;65.31;99471.94;5071511;28;20043;-69
2022/04/01 05:14:35;;;;;;;5.65;3.67;;;;;;;1.82;64.79;99469.22;5073764;28;20032;-63
2022/04/01 05:17:11;;;;;;;10.10;6.43;;;;;;;2.00;63.41;99474.50;5051490;28;20029;-70
2022/04/01 05:19:40;;;;;;;12.52;6.22;;;;;;;1.77;63.85;99476.50;5069441;28;20043;-69
2022/04/01 05:22:06;;;;;;;8.20;5.50;;;;;;;1.81;63.86;99479.84;5071160;28;20338;-66
2022/04/01 05:24:32;;;;;;;9.43;6.03;;;;;;;1.89;63.24;99472.41;5071100;28;20035;-68
2022/04/01 05:27:02;;;;;;;8.55;6.22;;;;;;;1.75;63.95;99474.88;5071292;28;20024;-68
2022/04/01 05:29:36;;;;;;;12.23;6.93;;;;;;;1.78;64.10;99458.88;5071154;28;20385;-70
2022/04/01 05:32:07;;;;;;;10.05;4.93;;;;;;;2.05;62.75;99467.19;5068414;28;20381;-69
2022/04/01 05:34:36;;;;;;;13.95;7.45;;;;;;;1.85;63.31;99478.78;5072196;28;20036;-69
2022/04/01 05:37:02;;;;;;;11.02;7.03;;;;;;;1.84;63.16;99469.16;5072916;28;20194;-68
2022/04/01 05:39:30;;;;;;;10.55;7.47;;;;;;;1.83;63.36;99473.56;5072211;28;20048;-69
2022/04/01 05:41:56;;;;;;;11.68;7.22;;;;;;;1.62;64.01;99449.09;5071788;28;20060;-68
2022/04/01 05:44:24;;;;;;;10.13;7.20;;;;;;;1.92;62.55;99466.09;5072229;28;20028;-68
2022/04/01 05:46:51;;;;;;;10.80;7.03;;;;;;;1.88;63.96;99475.09;5073029;28;20032;-65
2022/04/01 05:49:18;;;;;;;9.23;4.78;;;;;;;2.14;62.02;99485.19;5065615;28;20411;-68
2022/04/01 05:51:46;;;;;;;8.40;6.15;;;;;;;1.91;62.78;99456.47;5071286;28;20040;-69
2022/04/01 05:54:15;;;;;;;9.60;6.72;;;;;;;1.95;62.54;99476.53;5070733;28;20486;-69
2022/04/01 05:56:44;;;;;;;10.13;6.93;;;;;;;2.08;61.97;99471.47;5071360;28;20043;-70
2022/04/01 05:59:12;;;;;;;11.27;7.15;;;;;;;1.79;63.19;99472.00;5070946;28;20040;-69
2022/04/01 06:01:53;;;;;;;13.20;7.38;;;;;;;1.90;63.35;99476.75;5057199;28;20489;-68
2022/04/01 06:04:41;;;;;;;9.43;5.93;;;;;;;2.17;62.64;99464.84;5052419;28;20086;-67
2022/04/01 06:07:28;;;;;;;11.07;6.93;;;;;;;2.21;62.09;99474.34;5051717;28;20029;-65
2022/04/01 06:10:09;;;;;;;11.35;6.65;;;;;;;2.04;62.68;99475.19;5053644;28;20028;-64
2022/04/01 06:12:40;;;;;;;6.82;4.75;;;;;;;2.23;61.46;99485.69;5062746;28;20541;-66
2022/04/01 06:15:18;;;;;;;9.65;4.97;;;;;;;2.40;60.88;99479.50;5071669;28;20029;-66
2022/04/01 06:18:05;;;;;;;9.60;6.13;;;;;;;2.25;61.17;99483.81;5071263;28;20074;-67
2022/04/01 06:20:33;;;;;;;8.55;5.55;;;;;;;2.04;61.13;99497.19;5070784;28;20433;-66
2022/04/01 06:23:12;;;;;;;9.52;6.20;;;;;;;1.88;61.63;99494.47;5066671;28;20024;-65
2022/04/01 06:25:51;;;;;;;8.93;6.72;;;;;;;1.69;62.66;99489.25;5067867;28;20039;-65
2022/04/01 06:28:24;;;;;;;8.93;5.78;;;;;;;1.75;62.25;99490.72;5066957;28;20028;-65
2022/04/01 06:30:52;;;;;;;10.82;6.65;;;;;;;1.81;62.26;99490.41;5070083;28;20057;-66
2022/04/01 06:33:49;;;;;;;8.18;6.15;;;;;;;1.76;62.62;99490.66;5071604;28;20127;-65
2022/04/01 06:36:24;;;;;;;11.00;6.47;;;;;;;1.78;62.00;99483.50;5051404;28;20041;-67
2022/04/01 06:39:03;;;;;;;9.57;5.85;;;;;;;1.70;62.86;99485.69;5061892;28;20055;-63
2022/04/01 06:41:31;;;;;;;8.10;5.70;;;;;;;1.97;61.50;99479.94;5050741;28;20111;-65
2022/04/01 06:43:56;;;;;;;8.75;6.05;;;;;;;1.89;61.43;99482.09;5050951;28;20414;-66
2022/04/01 06:46:22;;;;;;;6.18;4.43;;;;;;;1.94;61.77;99474.81;5063704;28;20020;-64
2022/04/01 06:48:47;;;;;;;10.45;5.60;;;;;;;2.10;60.63;99486.28;5070061;28;20411;-65
2022/04/01 06:51:14;;;;;;;8.55;5.60;;;;;;;2.08;60.49;99488.16;5069978;28;20024;-68
2022/04/01 06:53:41;;;;;;;8.32;5.85;;;;;;;1.69;61.64;99471.63;5070097;28;20553;-70
2022/04/01 06:56:09;;;;;;;7.90;6.00;;;;;;;1.80;61.98;99489.56;5070106;28;20025;-64
2022/04/01 06:58:35;;;;;;;7.28;5.32;;;;;;;1.88;61.91;99483.91;5070589;28;20028;-66
2022/04/01 07:01:02;;;;;;;10.13;5.40;;;;;;;2.06;61.11;99468.91;5070758;28;20020;-65
2022/04/01 07:03:28;;;;;;;10.13;6.43;;;;;;;1.98;61.09;99474.56;5069217;28;20035;-66
2022/04/01 07:05:55;;;;;;;9.77;6.15;;;;;;;1.42;62.00;99414.00;5070716;28;20032;-66
2022/04/01 07:08:21;;;;;;;7.75;5.63;;;;;;;2.17;61.33;99470.13;5053413;28;20037;-66
2022/04/01 07:10:48;;;;;;;7.68;5.20;;;;;;;2.12;60.97;99463.31;5069514;28;20394;-65
2022/04/01 07:13:15;;;;;;;9.27;6.55;;;;;;;2.17;61.66;99485.97;5069939;28;20138;-65
2022/04/01 07:15:41;;;;;;;8.23;6.13;;;;;;;2.36;60.40;99473.53;5070839;28;20029;-66
2022/04/01 07:18:07;;;;;;;8.52;5.50;;;;;;;2.39;60.43;99472.53;5070172;28;20032;-65
2022/04/01 07:20:33;;;;;;;9.10;6.10;;;;;;;2.42;60.41;99478.50;5070297;28;20028;-63
2022/04/01 07:22:59;;;;;;;7.70;6.18;;;;;;;2.55;59.75;99489.28;5052084;28;20032;-66
2022/04/01 07:25:25;;;;;;;7.80;5.38;;;;;;;2.62;59.63;99481.88;5070706;28;20028;-64
2022/04/01 07:27:52;;;;;;;8.43;5.75;;;;;;;2.55;58.97;99472.56;5070781;28;20036;-65
2022/04/01 07:30:18;;;;;;;7.78;5.88;;;;;;;2.41;60.05;99474.16;5070311;28;20039;-65
2022/04/01 07:32:44;;;;;;;6.65;4.15;;;;;;;2.79;58.01;99472.19;5070816;28;20032;-69
2022/04/01 07:35:14;;;;;;;8.93;5.25;;;;;;;2.65;59.08;99478.22;5070006;28;20033;-61
2022/04/01 07:37:42;;;;;;;7.97;5.60;;;;;;;2.37;59.73;99477.88;5070416;28;20222;-62
2022/04/01 07:40:09;;;;;;;10.00;6.32;;;;;;;2.36;60.37;99480.63;5069736;28;20036;-62
2022/04/01 07:42:35;;;;;;;8.77;6.15;;;;;;;2.57;59.08;99473.34;5052621;28;20170;-61
2022/04/01 07:45:02;;;;;;;7.60;5.78;;;;;;;2.80;58.50;99477.41;5069794;28;20029;-62
2022/04/01 07:47:29;;;;;;;7.63;6.05;;;;;;;2.79;59.29;99480.97;5052178;28;20028;-63
2022/04/01 07:49:54;;;;;;;8.90;5.80;;;;;;;2.90;58.32;99479.53;5070947;28;20040;-61
2022/04/01 07:52:22;;;;;;;12.88;6.28;;;;;;;2.96;58.87;99481.84;5071011;28;20028;-64
2022/04/01 07:54:50;;;;;;;9.68;6.43;;;;;;;3.09;57.99;99484.66;5070992;28;20028;-61
2022/04/01 07:57:17;;;;;;;8.63;6.25;;;;;;;3.18;58.58;99483.31;5073686;28;20474;-63
2022/04/01 07:59:43;;;;;;;10.27;6.05;;;;;;;3.42;56.10;99470.50;5074177;28;20032;-62
2022/04/01 08:02:09;;;;;;;7.18;4.97;;;;;;;3.52;56.13;99484.06;5073971;28;20097;-62
2022/04/01 08:04:35;;;;;;;7.78;5.78;;;;;;;3.20;56.31;99477.00;5073679;28;20465;-63
2022/04/01 08:07:00;;;;;;;7.65;4.93;;;;;;;3.24;56.01;99486.47;5073586;28;20036;-60
2022/04/01 08:09:26;;;;;;;8.15;4.97;;;;;;;3.19;55.38;99485.88;5073917;28;20020;-61
2022/04/01 08:11:53;;;;;;;7.75;5.82;;;;;;;2.97;57.12;99492.34;5074341;28;20040;-64
2022/04/01 08:14:19;;;;;;;7.18;4.20;;;;;;;3.33;56.34;99482.47;5073697;28;20074;-63
2022/04/01 08:16:45;;;;;;;7.78;4.72;;;;;;;3.54;54.62;99480.38;5073473;28;20674;-56
2022/04/01 08:19:11;;;;;;;8.45;5.07;;;;;;;3.99;54.10;99474.31;5056328;28;20029;-58
2022/04/01 08:21:37;;;;;;;6.88;4.45;;;;;;;4.73;51.64;99487.56;5074425;28;20036;-63
2022/04/01 08:24:03;;;;;;;5.20;4.40;;;;;;;5.08;50.08;99483.66;5073101;28;20024;-63
2022/04/01 08:26:28;;;;;;;4.38;3.90;;;;;;;5.27;50.33;99484.16;5072762;28;20455;-63
2022/04/01 08:28:54;;;;;;;8.63;5.13;;;;;;;4.85;50.17;99472.69;5073875;28;20035;-63
2022/04/01 08:31:20;;;;;;;5.95;4.15;;;;;;;4.77;49.87;99475.81;5055605;28;20056;-65
2022/04/01 08:33:47;;;;;;;6.60;4.80;;;;;;;4.43;51.35;99470.78;5072831;28;20087;-62
2022/04/01 08:36:14;;;;;;;6.70;4.95;;;;;;;4.28;52.67;99453.16;5054629;28;20098;-67
2022/04/01 08:38:40;;;;;;;8.27;4.93;;;;;;;4.68;52.13;99471.94;5072149;28;20079;-63
2022/04/01 08:41:06;;;;;;;6.05;4.63;;;;;;;4.94;51.02;99490.66;5072843;28;20032;-63
2022/04/01 08:43:34;;;;;;;8.55;4.60;;;;;;;5.22;49.25;99491.56;5072908;28;20039;-62
2022/04/01 08:46:04;;;;;;;6.25;4.88;;;;;;;5.25;50.14;99478.09;5055462;28;20036;-63
2022/04/01 08:48:32;;;;;;;8.40;5.00;;;;;;;5.45;50.41;99481.28;5073181;28;20450;-64
2022/04/01 08:50:58;;;;;;;6.80;4.47;;;;;;;5.73;48.64;99471.50;5073227;28;20032;-64
2022/04/01 08:53:23;;;;;;;8.65;4.07;;;;;;;5.82;47.21;99467.38;5054381;28;20032;-61
2022/04/01 08:55:54;;;;;;;6.47;4.40;;;;;;;5.59;48.44;99478.59;5072332;28;20034;-62
2022/04/01 08:58:21;;;;;;;6.63;4.50;;;;;;;5.39;48.78;99471.91;5053899;28;20020;-67
2022/04/01 09:00:47;;;;;;;5.70;4.15;;;;;;;5.53;47.78;99489.59;5072648;28;20040;-65
2022/04/01 09:03:15;;;;;;;7.07;4.07;;;;;;;5.51;49.28;99498.63;5072898;28;20059;-64
2022/04/01 09:05:45;;;;;;;5.32;3.90;;;;;;;5.77;48.60;99483.63;5071580;28;20470;-64
2022/04/01 09:08:14;;;;;;;8.55;4.00;;;;;;;5.58;46.99;99492.81;5072075;28;20033;-67
2022/04/01 09:11:04;;;;;;;4.78;3.83;;;;;;;5.29;48.71;99461.03;5040799;28;20031;-68
2022/04/01 09:13:51;;;;;;;5.75;4.00;;;;;;;5.42;48.67;99494.75;5072518;28;20036;-64
2022/04/01 09:16:39;;;;;;;5.32;3.92;;;;;;;5.42;48.39;99497.41;5071974;28;20031;-63
2022/04/01 09:19:06;;;;;;;5.68;4.30;;;;;;;5.19;48.09;99491.78;5072413;28;20036;-62
2022/04/01 09:21:33;;;;;;;11.45;4.53;;;;;;;5.21;47.97;99503.16;5054391;28;20032;-63
2022/04/01 09:24:01;;;;;;;5.32;3.88;;;;;;;5.52;46.34;99500.34;5072157;28;20385;-61
2022/04/01 09:26:32;;;;;;;8.95;4.45;;;;;;;5.31;46.53;99496.31;5072913;28;20037;-62
2022/04/01 09:29:00;;;;;;;6.20;3.83;;;;;;;5.45;45.81;99491.91;5072675;28;20067;-64
2022/04/01 09:31:31;;;;;;;4.97;3.78;;;;;;;5.40;46.52;99492.19;5072691;28;20025;-59
2022/04/01 09:33:57;;;;;;;4.85;4.00;;;;;;;5.28;46.67;99482.38;5073042;28;20374;-61
2022/04/01 09:36:29;;;;;;;5.63;3.75;;;;;;;5.70;46.05;99490.31;5072530;28;20053;-58
2022/04/01 09:39:08;;;;;;;7.13;4.22;;;;;;;6.20;46.15;99487.03;5072672;28;20455;-62
2022/04/01 09:41:45;;;;;;;6.72;4.55;;;;;;;6.28;45.42;99479.44;5051519;28;20475;-60
2022/04/01 09:44:17;;;;;;;5.85;4.50;;;;;;;6.15;45.26;99468.78;5052055;28;20411;-61
2022/04/01 09:46:46;;;;;;;6.32;3.58;;;;;;;6.20;45.72;99471.09;5051879;28;20441;-62
2022/04/01 09:49:27;;;;;;;5.75;3.67;;;;;;;5.84;44.82;99399.06;5062991;28;20062;-58
2022/04/01 09:51:52;;;;;;;6.97;4.57;;;;;;;5.87;45.49;99470.56;5033492;28;20482;-63
2022/04/01 09:54:18;;;;;;;6.93;4.22;;;;;;;5.92;45.36;99460.53;5064030;28;20123;-63
2022/04/01 09:56:46;;;;;;;6.18;4.90;;;;;;;5.84;45.57;99458.38;5071900;28;20434;-63
2022/04/01 09:59:15;;;;;;;5.13;2.88;;;;;;;6.11;44.67;99456.63;5070562;28;20029;-62
2022/04/01 10:01:43;;;;;;;6.38;3.72;;;;;;;6.26;44.03;99450.28;5071259;28;20064;-58
2022/04/01 10:04:10;;;;;;;4.97;4.35;;;;;;;6.15;43.96;99448.34;5071667;28;20075;-61
2022/04/01 10:06:36;;;;;;;6.20;4.13;;;;;;;6.09;43.88;99448.78;5071849;28;20090;-60
2022/04/01 10:09:12;;;;;;;6.45;4.35;;;;;;;6.12;44.19;99421.13;5070474;28;20557;-58
2022/04/01 10:11:42;;;;;;;5.57;3.78;;;;;;;6.37;44.13;99444.22;5069944;28;20106;-57
2022/04/01 10:14:07;;;;;;;7.90;4.88;;;;;;;6.60;43.13;99441.75;5070329;28;20037;-56
2022/04/01 10:16:35;;;;;;;5.60;3.90;;;;;;;6.59;42.87;99435.56;5071564;28;20147;-66
2022/04/01 10:19:06;;;;;;;7.60;3.70;;;;;;;6.64;42.85;99445.91;5053223;28;20036;-63
2022/04/01 10:21:34;;;;;;;5.63;3.90;;;;;;;6.58;43.15;99438.34;5052833;28;20127;-62
2022/04/01 10:24:22;;;;;;;6.57;4.30;;;;;;;6.87;43.95;99430.09;5071468;28;20037;-60
2022/04/01 10:27:07;;;;;;;6.13;4.00;;;;;;;7.19;43.38;99432.25;5070600;28;20037;-65
2022/04/01 10:29:33;;;;;;;5.65;3.05;;;;;;;7.38;41.61;99428.25;5070022;28;20032;-63
2022/04/01 10:32:25;;;;;;;8.20;4.35;;;;;;;7.40;41.97;99421.84;5070740;28;20398;-62
2022/04/01 10:34:53;;;;;;;5.55;3.92;;;;;;;7.31;41.17;99422.50;5069635;28;20529;-64
2022/04/01 10:37:22;;;;;;;9.50;4.00;;;;;;;7.46;41.17;99423.19;5070707;28;20045;-64
2022/04/01 10:40:08;;;;;;;6.80;3.63;;;;;;;7.73;41.24;99419.44;5069484;28;20554;-61
2022/04/01 10:42:38;;;;;;;4.28;3.28;;;;;;;7.74;39.43;99411.31;5071077;28;20466;-64
2022/04/01 10:45:22;;;;;;;6.78;3.60;;;;;;;7.58;40.88;99419.63;5071273;28;20028;-62
2022/04/01 10:53:51;;;;;;;6.15;3.55;;;;;;;7.41;39.11;99394.25;5070651;28;20033;-67
2022/04/01 10:56:26;;;;;;;4.18;3.53;;;;;;;7.37;39.93;99398.09;5060952;28;20024;-64
2022/04/01 10:59:14;;;;;;;8.93;3.60;;;;;;;7.30;39.74;99389.72;5071190;28;20029;-65
2022/04/01 11:01:43;;;;;;;4.20;3.47;;;;;;;6.95;40.03;99381.66;5070266;28;20273;-62
2022/04/01 11:04:12;;;;;;;5.45;3.88;;;;;;;6.91;41.29;99378.34;5070653;28;20024;-65
2022/04/01 11:07:11;;;;;;;6.13;3.80;;;;;;;7.30;41.14;99381.72;5070760;28;20089;-64
2022/04/01 11:09:55;;;;;;;8.93;4.63;;;;;;;7.20;41.17;99385.19;5051952;28;20036;-65
2022/04/01 11:12:27;;;;;;;6.03;4.47;;;;;;;7.05;41.34;99388.00;5070091;28;20504;-65
2022/04/01 11:15:08;;;;;;;6.57;4.60;;;;;;;7.28;40.92;99367.69;5071049;28;20036;-64
2022/04/01 11:17:34;;;;;;;9.02;4.20;;;;;;;7.14;40.57;99323.44;5070317;28;20477;-60
2022/04/01 11:20:05;;;;;;;7.88;4.20;;;;;;;7.58;40.61;99365.47;5070813;28;20069;-65
2022/04/01 11:22:33;;;;;;;6.10;4.22;;;;;;;7.77;40.30;99367.59;5070807;28;20067;-63
2022/04/01 11:24:59;;;;;;;7.05;4.07;;;;;;;7.82;39.09;99348.56;5070965;28;20133;-63
2022/04/01 11:27:25;;;;;;;4.22;3.05;;;;;;;7.83;38.67;99347.63;5069505;28;20059;-62
2022/04/01 11:30:13;;;;;;;4.72;3.20;;;;;;;7.98;38.19;99353.59;5068147;28;20056;-63
2022/04/01 11:32:40;;;;;;;5.03;4.10;;;;;;;7.28;38.53;99337.53;5070399;28;20040;-66
2022/04/01 11:35:08;;;;;;;10.02;4.15;;;;;;;7.08;39.46;99312.41;5068786;28;20032;-69
2022/04/01 11:37:42;;;;;;;7.50;3.60;;;;;;;7.38;38.37;99343.00;5068781;28;20036;-62
2022/04/01 11:40:20;;;;;;;5.55;3.50;;;;;;;7.02;38.88;99350.97;5067629;28;20074;-65
2022/04/01 11:43:02;;;;;;;4.45;3.13;;;;;;;7.03;38.91;99339.34;5068715;28;20427;-66
2022/04/01 11:45:30;;;;;;;6.38;3.47;;;;;;;6.52;39.59;99327.09;5067014;28;20485;-63
2022/04/01 11:47:56;;;;;;;3.83;3.17;;;;;;;6.54;40.01;99331.31;5050310;28;20407;-64
2022/04/01 11:50:24;;;;;;;6.68;3.83;;;;;;;6.68;40.11;99332.16;5052344;28;20086;-63
2022/04/01 11:52:54;;;;;;;7.68;3.95;;;;;;;6.70;40.02;99328.41;5052350;28;20035;-65
2022/04/01 11:55:24;;;;;;;4.70;3.42;;;;;;;6.88;39.90;99325.38;5069587;28;20090;-65
2022/04/01 11:57:52;;;;;;;4.97;3.38;;;;;;;7.06;39.05;99324.97;5069594;28;20036;-64
2022/04/01 12:00:25;;;;;;;5.25;2.92;;;;;;;7.15;38.14;99297.66;5070133;28;20516;-66